createdAt,value
2022-11-16T00:01:00.040Z,13.20
2022-11-16T00:04:03.592Z,12.90
2022-11-16T00:07:06.277Z,12.48
2022-11-16T00:10:08.454Z,12.95
2022-11-16T00:13:10.261Z,11.53
2022-11-16T00:16:16.755Z,12.48
2022-11-16T00:19:19.067Z,11.70
2022-11-16T00:22:20.928Z,11.85
2022-11-16T00:25:22.711Z,12.10
2022-11-16T00:28:24.630Z,11.75
2022-11-16T00:31:26.439Z,11.70
2022-11-16T00:34:28.361Z,10.75
2022-11-16T00:37:30.161Z,10.40
2022-11-16T00:40:32.121Z,10.80
2022-11-16T00:43:34.950Z,10.23
2022-11-16T00:49:39.094Z,10.73
2022-11-16T00:52:41.242Z,11.35
2022-11-16T00:55:44.323Z,10.32
2022-11-16T01:01:48.189Z,10.23
2022-11-16T01:04:50.248Z,11.63
2022-11-16T01:07:52.191Z,12.18
2022-11-16T01:10:54.105Z,11.57
2022-11-16T01:13:55.949Z,11.98
2022-11-16T01:16:57.806Z,11.85
2022-11-16T01:19:59.591Z,11.63
2022-11-16T01:23:01.446Z,10.82
2022-11-16T01:26:03.474Z,10.90
2022-11-16T01:29:09.130Z,10.85
2022-11-16T01:32:15.689Z,10.27
2022-11-16T01:35:19.309Z,11.18
2022-11-16T01:38:27.143Z,9.73
2022-11-16T01:41:33.254Z,10.30
2022-11-16T01:44:39.007Z,10.38
2022-11-16T01:47:48.913Z,11.32
2022-11-16T01:50:56.458Z,11.02
2022-11-16T01:54:01.439Z,11.57
2022-11-16T01:57:06.378Z,12.30
2022-11-16T02:00:14.550Z,10.77
2022-11-16T02:03:22.288Z,11.88
2022-11-16T02:10:02.234Z,11.32
2022-11-16T02:13:34.894Z,13.07
2022-11-16T02:16:49.588Z,14.27
2022-11-16T02:20:20.655Z,14.00
2022-11-16T02:23:41.107Z,14.10
2022-11-16T02:27:16.623Z,14.07
2022-11-16T02:30:26.479Z,12.35
2022-11-16T02:33:36.208Z,13.43
2022-11-16T02:36:42.260Z,11.60
2022-11-16T02:39:48.220Z,12.70
2022-11-16T02:42:58.161Z,13.10
2022-11-16T02:46:04.289Z,13.30
2022-11-16T02:49:15.150Z,14.18
2022-11-16T02:52:18.709Z,12.95
2022-11-16T02:55:25.930Z,12.25
2022-11-16T02:58:29.218Z,12.57
2022-11-16T03:01:38.186Z,12.18
2022-11-16T03:04:48.954Z,12.00
2022-11-16T03:07:58.160Z,11.80
2022-11-16T03:11:22.402Z,11.70
2022-11-16T03:14:36.137Z,11.68
2022-11-16T03:17:42.317Z,12.25
2022-11-16T03:20:48.236Z,12.48
2022-11-16T03:23:50.757Z,12.95
2022-11-16T03:26:59.527Z,12.68
2022-11-16T03:30:13.452Z,12.82
2022-11-16T03:33:32.637Z,11.73
2022-11-16T03:36:39.482Z,13.20
2022-11-16T03:39:42.716Z,13.40
2022-11-16T03:42:46.554Z,13.23
2022-11-16T03:45:49.153Z,13.27
2022-11-16T03:48:57.881Z,12.55
2022-11-16T03:52:02.369Z,11.70
2022-11-16T03:55:06.432Z,12.95
2022-11-16T03:58:09.468Z,13.10
2022-11-16T04:01:13.528Z,12.88
2022-11-16T04:04:35.619Z,13.32
2022-11-16T04:07:57.081Z,12.50
2022-11-16T04:11:17.991Z,13.38
2022-11-16T04:14:42.008Z,12.80
2022-11-16T04:18:06.099Z,13.57
2022-11-16T04:21:53.415Z,12.60
2022-11-16T04:25:08.295Z,10.88
2022-11-16T04:28:13.805Z,12.90
2022-11-16T04:31:38.533Z,13.13
2022-11-16T04:35:03.259Z,12.10
2022-11-16T04:38:05.325Z,12.00
2022-11-16T04:41:29.744Z,11.55
2022-11-16T04:44:55.209Z,12.15
2022-11-16T04:48:00.303Z,12.55
2022-11-16T04:51:05.867Z,11.52
2022-11-16T04:54:09.021Z,13.35
2022-11-16T04:57:10.900Z,11.67
2022-11-16T05:00:13.398Z,13.33
2022-11-16T05:03:15.562Z,12.85
2022-11-16T05:06:17.775Z,12.88
2022-11-16T05:09:20.334Z,13.07
2022-11-16T05:12:27.917Z,12.13
2022-11-16T05:15:33.471Z,11.98
2022-11-16T05:18:36.346Z,11.98
2022-11-16T05:21:38.674Z,11.35
2022-11-16T05:24:41.230Z,11.60
2022-11-16T05:27:43.109Z,12.80
2022-11-16T05:30:46.265Z,11.88
2022-11-16T05:33:52.047Z,12.02
2022-11-16T05:36:55.711Z,12.88
2022-11-16T05:39:57.801Z,13.15
2022-11-16T05:43:09.423Z,13.23
2022-11-16T05:46:17.302Z,13.52
2022-11-16T05:49:20.813Z,13.77
2022-11-16T09:54:17.610Z,14.50
2022-11-16T15:40:54.927Z,33.40
2022-11-16T15:44:13.948Z,21.92
2022-11-16T15:47:17.336Z,21.73
2022-11-16T15:50:23.267Z,20.45
2022-11-16T15:53:52.791Z,19.98
2022-11-16T15:57:08.103Z,20.55
2022-11-16T16:00:22.459Z,21.50
2022-11-16T16:03:26.911Z,22.83
2022-11-16T16:06:58.038Z,35.58
2022-11-16T16:10:35.506Z,21.08
2022-11-16T16:13:41.750Z,21.60
2022-11-16T16:16:49.497Z,20.60
2022-11-16T16:20:04.099Z,19.77
2022-11-16T16:23:08.964Z,19.08
2022-11-16T16:26:10.909Z,18.83
2022-11-16T16:29:12.723Z,17.30
2022-11-16T16:32:19.653Z,21.50
2022-11-16T16:35:23.652Z,17.17
2022-11-16T16:38:26.089Z,21.40
2022-11-16T16:41:28.626Z,24.83
2022-11-16T16:44:30.574Z,21.67
2022-11-16T16:47:33.086Z,20.88
2022-11-16T16:50:35.781Z,20.02
2022-11-16T16:53:37.706Z,17.23
2022-11-16T16:56:42.086Z,16.30
2022-11-16T16:59:47.467Z,17.90
2022-11-16T17:02:52.777Z,19.50
2022-11-16T17:05:59.993Z,17.15
2022-11-16T17:09:02.715Z,18.25
2022-11-16T17:12:06.513Z,17.88
2022-11-16T17:15:08.777Z,18.60
2022-11-16T17:18:10.688Z,19.73
2022-11-16T17:21:13.842Z,19.17
2022-11-16T17:24:16.253Z,18.33
2022-11-16T17:27:18.206Z,18.55
2022-11-16T17:30:23.045Z,20.43
2022-11-16T17:33:25.690Z,20.67
2022-11-16T17:36:28.605Z,20.60
2022-11-16T17:39:30.427Z,21.52
2022-11-16T17:42:35.619Z,19.25
2022-11-16T17:45:39.159Z,23.10
2022-11-16T17:48:44.040Z,19.50
2022-11-16T17:51:47.877Z,19.65
2022-11-16T17:54:49.806Z,21.05
2022-11-16T17:57:54.629Z,20.17
2022-11-16T18:00:58.809Z,17.88
2022-11-16T18:04:03.041Z,20.90
2022-11-16T18:07:05.327Z,17.05
2022-11-16T18:10:08.029Z,15.68
2022-11-16T18:13:10.057Z,15.80
2022-11-16T18:16:18.268Z,14.53
2022-11-16T18:19:20.852Z,14.15
2022-11-16T18:22:24.554Z,16.40
2022-11-16T18:25:27.820Z,13.73
2022-11-16T18:28:32.025Z,14.50
2022-11-16T18:31:34.075Z,16.40
2022-11-16T18:34:39.528Z,17.10
2022-11-16T18:37:43.228Z,16.35
2022-11-16T18:40:46.017Z,16.27
2022-11-16T18:44:00.861Z,14.32
2022-11-16T18:47:04.746Z,14.35
2022-11-16T18:50:20.059Z,12.35
2022-11-16T18:53:24.693Z,13.02
2022-11-16T18:56:27.355Z,13.17
2022-11-16T18:59:33.267Z,13.52
2022-11-16T19:02:39.196Z,14.15
2022-11-16T19:05:42.542Z,13.80
2022-11-16T19:08:52.168Z,13.23
2022-11-16T19:11:57.110Z,12.85
2022-11-16T19:14:59.515Z,14.07
2022-11-16T19:21:24.231Z,11.65
2022-11-16T19:24:30.094Z,11.98
2022-11-16T19:27:32.671Z,12.70
2022-11-16T19:30:35.684Z,12.03
2022-11-16T19:33:40.425Z,11.85
2022-11-16T19:36:43.470Z,12.55
2022-11-16T19:39:46.513Z,11.90
2022-11-16T19:42:48.572Z,12.57
2022-11-16T19:45:51.161Z,11.98
2022-11-16T19:48:56.126Z,11.13
2022-11-16T19:52:00.044Z,11.85
2022-11-16T19:55:03.501Z,12.02
2022-11-16T19:58:06.636Z,11.63
2022-11-16T20:01:20.321Z,12.05
2022-11-16T20:04:22.297Z,14.32
2022-11-16T20:07:24.283Z,13.77
2022-11-16T20:10:29.291Z,13.93
2022-11-16T20:13:31.249Z,13.63
2022-11-16T20:16:38.997Z,14.30
2022-11-16T20:19:41.849Z,12.45
2022-11-16T20:22:44.092Z,13.85
2022-11-16T20:25:46.982Z,12.23
2022-11-16T20:31:53.078Z,11.20
2022-11-16T20:34:55.041Z,10.82
2022-11-16T20:37:56.919Z,9.82
2022-11-16T20:41:06.589Z,10.32
2022-11-16T20:44:16.325Z,10.40
2022-11-16T20:47:18.826Z,10.02
2022-11-16T20:50:21.592Z,9.65
2022-11-16T20:53:23.674Z,10.95
2022-11-16T20:56:27.027Z,11.00
2022-11-16T20:59:28.881Z,10.45
2022-11-16T21:02:31.180Z,9.80
2022-11-16T21:05:33.011Z,10.48
2022-11-16T21:08:36.718Z,10.65
2022-11-16T21:11:56.912Z,10.73
2022-11-16T21:14:58.772Z,10.13
2022-11-16T21:18:00.837Z,11.13
2022-11-16T21:21:13.677Z,11.40
2022-11-16T21:24:17.863Z,10.63
2022-11-16T21:27:19.790Z,10.35
2022-11-16T21:30:21.776Z,9.57
2022-11-16T21:33:24.054Z,8.93
2022-11-16T21:36:27.958Z,10.95
2022-11-16T21:39:29.897Z,10.02
2022-11-16T21:42:31.853Z,9.43
2022-11-16T21:45:35.283Z,9.33
2022-11-16T21:48:37.673Z,8.80
2022-11-16T21:51:39.487Z,8.13
2022-11-16T21:54:59.383Z,8.00
2022-11-16T21:58:03.633Z,8.40
2022-11-16T22:01:05.726Z,8.30
2022-11-16T22:04:26.260Z,8.13
2022-11-16T22:07:33.702Z,7.85
2022-11-16T22:10:35.743Z,8.18
2022-11-16T22:13:38.401Z,9.20
2022-11-16T22:16:40.323Z,8.10
2022-11-16T22:19:42.266Z,8.68
2022-11-16T22:22:44.252Z,8.85
2022-11-16T22:25:46.198Z,9.00
2022-11-16T22:28:48.291Z,9.47
2022-11-16T22:31:50.152Z,9.40
2022-11-16T22:34:52.173Z,10.05
2022-11-16T22:37:54.130Z,10.47
2022-11-16T22:40:57.381Z,9.48
2022-11-16T22:43:59.310Z,9.57
2022-11-16T22:47:01.869Z,9.45
2022-11-16T22:50:04.226Z,9.02
2022-11-16T22:53:06.073Z,8.77
2022-11-16T22:56:09.402Z,8.00
2022-11-16T22:59:11.394Z,7.32
2022-11-16T23:02:13.289Z,7.50
2022-11-16T23:05:15.312Z,7.30
2022-11-16T23:08:17.223Z,7.00
2022-11-16T23:11:44.546Z,6.95
2022-11-16T23:15:05.050Z,7.07
2022-11-16T23:18:06.997Z,6.50
2022-11-16T23:21:27.817Z,6.50
2022-11-16T23:24:48.480Z,6.68
2022-11-16T23:27:54.469Z,5.63
2022-11-16T23:30:56.337Z,5.47
2022-11-16T23:33:58.209Z,5.38
2022-11-16T23:37:07.617Z,5.13
2022-11-16T23:40:10.041Z,5.03
2022-11-16T23:43:30.436Z,5.13
2022-11-16T23:46:33.789Z,4.95
2022-11-16T23:49:35.674Z,5.45
2022-11-16T23:52:37.656Z,4.88
2022-11-16T23:55:40.480Z,5.03
2022-11-16T23:58:42.438Z,5.40
